sensor_id;sensor_type;location;lat;lon;timestamp;P1;durP1;ratioP1;P2;durP2;ratioP2
29196;SDS011;62796;42.654;23.316;2023-12-28T00:01:23;40.55;;;20.52;;
29196;SDS011;62796;42.654;23.316;2023-12-28T00:03:49;44.17;;;20.83;;
29196;SDS011;62796;42.654;23.316;2023-12-28T00:06:15;36.53;;;19.13;;
29196;SDS011;62796;42.654;23.316;2023-12-28T00:08:41;44.72;;;23.85;;
29196;SDS011;62796;42.654;23.316;2023-12-28T00:11:06;43.08;;;22.83;;
29196;SDS011;62796;42.654;23.316;2023-12-28T00:13:32;46.78;;;20.75;;
29196;SDS011;62796;42.654;23.316;2023-12-28T00:15:58;40.10;;;20.55;;
29196;SDS011;62796;42.654;23.316;2023-12-28T00:18:23;41.90;;;20.88;;
29196;SDS011;62796;42.654;23.316;2023-12-28T00:20:49;37.47;;;19.17;;
29196;SDS011;62796;42.654;23.316;2023-12-28T00:23:14;42.67;;;19.38;;
29196;SDS011;62796;42.654;23.316;2023-12-28T00:25:40;43.05;;;21.88;;
29196;SDS011;62796;42.654;23.316;2023-12-28T00:28:05;44.58;;;23.45;;
29196;SDS011;62796;42.654;23.316;2023-12-28T00:30:31;42.15;;;20.88;;
29196;SDS011;62796;42.654;23.316;2023-12-28T00:32:57;31.45;;;17.38;;
29196;SDS011;62796;42.654;23.316;2023-12-28T00:35:22;34.67;;;18.95;;
29196;SDS011;62796;42.654;23.316;2023-12-28T00:37:48;40.83;;;19.80;;
29196;SDS011;62796;42.654;23.316;2023-12-28T00:40:13;38.05;;;19.38;;
29196;SDS011;62796;42.654;23.316;2023-12-28T00:42:39;38.67;;;20.73;;
29196;SDS011;62796;42.654;23.316;2023-12-28T00:45:06;38.78;;;19.75;;
29196;SDS011;62796;42.654;23.316;2023-12-28T00:47:32;38.53;;;18.63;;
29196;SDS011;62796;42.654;23.316;2023-12-28T00:49:57;39.30;;;19.50;;
29196;SDS011;62796;42.654;23.316;2023-12-28T00:52:23;40.88;;;21.67;;
29196;SDS011;62796;42.654;23.316;2023-12-28T00:54:48;50.15;;;25.00;;
29196;SDS011;62796;42.654;23.316;2023-12-28T00:57:14;44.08;;;22.58;;
29196;SDS011;62796;42.654;23.316;2023-12-28T00:59:39;46.47;;;23.95;;
29196;SDS011;62796;42.654;23.316;2023-12-28T01:02:04;45.90;;;24.17;;
29196;SDS011;62796;42.654;23.316;2023-12-28T01:04:30;56.53;;;24.77;;
29196;SDS011;62796;42.654;23.316;2023-12-28T01:06:55;56.05;;;25.48;;
29196;SDS011;62796;42.654;23.316;2023-12-28T01:09:21;52.92;;;26.45;;
29196;SDS011;62796;42.654;23.316;2023-12-28T01:11:46;55.90;;;24.95;;
29196;SDS011;62796;42.654;23.316;2023-12-28T01:14:11;44.80;;;24.42;;
29196;SDS011;62796;42.654;23.316;2023-12-28T01:16:37;49.55;;;25.05;;
29196;SDS011;62796;42.654;23.316;2023-12-28T01:19:04;52.45;;;25.52;;
29196;SDS011;62796;42.654;23.316;2023-12-28T01:21:30;46.55;;;24.67;;
29196;SDS011;62796;42.654;23.316;2023-12-28T01:23:56;48.25;;;24.95;;
29196;SDS011;62796;42.654;23.316;2023-12-28T01:26:21;47.08;;;24.73;;
29196;SDS011;62796;42.654;23.316;2023-12-28T01:28:46;47.17;;;24.48;;
29196;SDS011;62796;42.654;23.316;2023-12-28T01:31:12;44.70;;;21.58;;
29196;SDS011;62796;42.654;23.316;2023-12-28T01:33:37;38.05;;;19.52;;
29196;SDS011;62796;42.654;23.316;2023-12-28T01:36:13;33.83;;;19.15;;
29196;SDS011;62796;42.654;23.316;2023-12-28T01:38:41;36.45;;;20.17;;
29196;SDS011;62796;42.654;23.316;2023-12-28T01:41:06;34.88;;;19.30;;
29196;SDS011;62796;42.654;23.316;2023-12-28T01:43:32;33.33;;;19.20;;
29196;SDS011;62796;42.654;23.316;2023-12-28T01:45:57;39.15;;;18.48;;
29196;SDS011;62796;42.654;23.316;2023-12-28T01:48:23;28.20;;;17.52;;
29196;SDS011;62796;42.654;23.316;2023-12-28T01:50:48;32.22;;;18.80;;
29196;SDS011;62796;42.654;23.316;2023-12-28T01:53:14;34.55;;;18.27;;
29196;SDS011;62796;42.654;23.316;2023-12-28T01:55:39;31.92;;;17.35;;
29196;SDS011;62796;42.654;23.316;2023-12-28T01:58:05;28.52;;;17.17;;
29196;SDS011;62796;42.654;23.316;2023-12-28T02:00:30;29.60;;;16.02;;
29196;SDS011;62796;42.654;23.316;2023-12-28T02:02:56;28.23;;;16.92;;
29196;SDS011;62796;42.654;23.316;2023-12-28T02:05:23;27.92;;;15.88;;
29196;SDS011;62796;42.654;23.316;2023-12-28T02:07:49;25.65;;;15.95;;
29196;SDS011;62796;42.654;23.316;2023-12-28T02:10:14;30.15;;;16.25;;
29196;SDS011;62796;42.654;23.316;2023-12-28T02:12:40;33.50;;;16.05;;
29196;SDS011;62796;42.654;23.316;2023-12-28T02:15:06;29.73;;;16.75;;
29196;SDS011;62796;42.654;23.316;2023-12-28T02:19:57;38.92;;;19.52;;
29196;SDS011;62796;42.654;23.316;2023-12-28T02:22:23;31.05;;;18.60;;
29196;SDS011;62796;42.654;23.316;2023-12-28T02:25:06;35.83;;;20.33;;
29196;SDS011;62796;42.654;23.316;2023-12-28T02:27:41;31.73;;;16.50;;
29196;SDS011;62796;42.654;23.316;2023-12-28T02:30:09;25.33;;;15.45;;
29196;SDS011;62796;42.654;23.316;2023-12-28T02:38:03;30.42;;;16.15;;
29196;SDS011;62796;42.654;23.316;2023-12-28T02:40:37;28.38;;;16.17;;
29196;SDS011;62796;42.654;23.316;2023-12-28T02:43:05;25.83;;;15.77;;
29196;SDS011;62796;42.654;23.316;2023-12-28T02:45:31;28.88;;;16.83;;
29196;SDS011;62796;42.654;23.316;2023-12-28T02:47:56;31.23;;;17.50;;
29196;SDS011;62796;42.654;23.316;2023-12-28T02:50:22;31.02;;;18.10;;
29196;SDS011;62796;42.654;23.316;2023-12-28T02:52:47;29.75;;;16.20;;
29196;SDS011;62796;42.654;23.316;2023-12-28T02:55:13;29.42;;;16.90;;
29196;SDS011;62796;42.654;23.316;2023-12-28T02:57:38;38.55;;;17.55;;
29196;SDS011;62796;42.654;23.316;2023-12-28T03:00:04;90.45;;;33.30;;
29196;SDS011;62796;42.654;23.316;2023-12-28T03:02:30;124.53;;;44.42;;
29196;SDS011;62796;42.654;23.316;2023-12-28T03:04:55;93.85;;;36.15;;
29196;SDS011;62796;42.654;23.316;2023-12-28T03:07:21;96.88;;;33.92;;
29196;SDS011;62796;42.654;23.316;2023-12-28T03:09:47;84.15;;;34.30;;
29196;SDS011;62796;42.654;23.316;2023-12-28T03:12:12;66.82;;;28.27;;
29196;SDS011;62796;42.654;23.316;2023-12-28T03:14:37;71.13;;;29.13;;
29196;SDS011;62796;42.654;23.316;2023-12-28T03:17:03;73.10;;;28.02;;
29196;SDS011;62796;42.654;23.316;2023-12-28T03:19:28;63.80;;;25.73;;
29196;SDS011;62796;42.654;23.316;2023-12-28T03:21:54;47.53;;;20.67;;
29196;SDS011;62796;42.654;23.316;2023-12-28T03:24:19;48.53;;;20.25;;
29196;SDS011;62796;42.654;23.316;2023-12-28T03:26:45;41.78;;;20.63;;
29196;SDS011;62796;42.654;23.316;2023-12-28T03:29:10;43.75;;;20.95;;
29196;SDS011;62796;42.654;23.316;2023-12-28T03:31:39;53.88;;;21.75;;
29196;SDS011;62796;42.654;23.316;2023-12-28T03:34:05;53.55;;;23.08;;
29196;SDS011;62796;42.654;23.316;2023-12-28T03:36:30;52.45;;;23.15;;
29196;SDS011;62796;42.654;23.316;2023-12-28T03:38:56;38.40;;;20.58;;
29196;SDS011;62796;42.654;23.316;2023-12-28T03:41:21;38.50;;;19.58;;
29196;SDS011;62796;42.654;23.316;2023-12-28T03:43:47;36.58;;;20.17;;
29196;SDS011;62796;42.654;23.316;2023-12-28T03:46:13;37.55;;;20.75;;
29196;SDS011;62796;42.654;23.316;2023-12-28T03:48:39;35.40;;;20.00;;
29196;SDS011;62796;42.654;23.316;2023-12-28T03:51:05;40.15;;;21.08;;
29196;SDS011;62796;42.654;23.316;2023-12-28T03:53:30;46.08;;;21.58;;
29196;SDS011;62796;42.654;23.316;2023-12-28T03:55:56;40.10;;;21.83;;
29196;SDS011;62796;42.654;23.316;2023-12-28T03:58:23;41.00;;;23.52;;
29196;SDS011;62796;42.654;23.316;2023-12-28T04:00:48;42.22;;;23.35;;
29196;SDS011;62796;42.654;23.316;2023-12-28T04:03:13;42.80;;;23.13;;
29196;SDS011;62796;42.654;23.316;2023-12-28T04:05:39;42.17;;;23.73;;
29196;SDS011;62796;42.654;23.316;2023-12-28T04:08:04;45.95;;;26.05;;
29196;SDS011;62796;42.654;23.316;2023-12-28T04:10:31;46.75;;;24.42;;
29196;SDS011;62796;42.654;23.316;2023-12-28T04:12:57;43.97;;;23.10;;
29196;SDS011;62796;42.654;23.316;2023-12-28T04:15:24;48.47;;;25.52;;
29196;SDS011;62796;42.654;23.316;2023-12-28T04:17:50;38.30;;;23.55;;
29196;SDS011;62796;42.654;23.316;2023-12-28T04:20:16;46.75;;;23.67;;
29196;SDS011;62796;42.654;23.316;2023-12-28T04:22:41;42.70;;;23.77;;
29196;SDS011;62796;42.654;23.316;2023-12-28T04:25:08;42.10;;;23.23;;
29196;SDS011;62796;42.654;23.316;2023-12-28T04:27:35;40.28;;;22.48;;
29196;SDS011;62796;42.654;23.316;2023-12-28T04:30:00;43.85;;;23.17;;
29196;SDS011;62796;42.654;23.316;2023-12-28T04:32:26;47.80;;;23.42;;
29196;SDS011;62796;42.654;23.316;2023-12-28T04:34:52;43.05;;;23.48;;
29196;SDS011;62796;42.654;23.316;2023-12-28T04:37:18;45.22;;;25.00;;
29196;SDS011;62796;42.654;23.316;2023-12-28T04:39:44;48.17;;;24.90;;
29196;SDS011;62796;42.654;23.316;2023-12-28T04:42:10;46.22;;;24.00;;
29196;SDS011;62796;42.654;23.316;2023-12-28T04:44:38;49.22;;;25.35;;
29196;SDS011;62796;42.654;23.316;2023-12-28T04:47:04;49.78;;;26.10;;
29196;SDS011;62796;42.654;23.316;2023-12-28T04:49:30;49.63;;;26.13;;
29196;SDS011;62796;42.654;23.316;2023-12-28T04:51:55;51.33;;;25.20;;
29196;SDS011;62796;42.654;23.316;2023-12-28T04:54:21;39.70;;;21.85;;
29196;SDS011;62796;42.654;23.316;2023-12-28T04:56:47;50.97;;;23.17;;
29196;SDS011;62796;42.654;23.316;2023-12-28T04:59:13;44.67;;;22.83;;
29196;SDS011;62796;42.654;23.316;2023-12-28T05:01:41;43.42;;;21.27;;
29196;SDS011;62796;42.654;23.316;2023-12-28T05:04:07;41.30;;;20.73;;
29196;SDS011;62796;42.654;23.316;2023-12-28T05:06:33;34.97;;;18.88;;
29196;SDS011;62796;42.654;23.316;2023-12-28T05:08:58;39.95;;;21.58;;
29196;SDS011;62796;42.654;23.316;2023-12-28T05:11:23;39.28;;;21.42;;
29196;SDS011;62796;42.654;23.316;2023-12-28T05:13:49;42.65;;;22.15;;
29196;SDS011;62796;42.654;23.316;2023-12-28T05:16:14;41.97;;;21.48;;
29196;SDS011;62796;42.654;23.316;2023-12-28T05:18:40;39.58;;;21.58;;
29196;SDS011;62796;42.654;23.316;2023-12-28T05:21:05;42.45;;;22.20;;
29196;SDS011;62796;42.654;23.316;2023-12-28T05:23:31;40.88;;;21.92;;
29196;SDS011;62796;42.654;23.316;2023-12-28T05:25:56;45.50;;;24.33;;
29196;SDS011;62796;42.654;23.316;2023-12-28T05:28:22;43.40;;;24.30;;
29196;SDS011;62796;42.654;23.316;2023-12-28T05:30:47;45.63;;;25.73;;
29196;SDS011;62796;42.654;23.316;2023-12-28T05:33:12;40.13;;;24.77;;
29196;SDS011;62796;42.654;23.316;2023-12-28T05:35:38;49.10;;;26.63;;
29196;SDS011;62796;42.654;23.316;2023-12-28T05:38:03;84.53;;;46.78;;
29196;SDS011;62796;42.654;23.316;2023-12-28T05:40:29;64.97;;;38.03;;
29196;SDS011;62796;42.654;23.316;2023-12-28T05:42:55;55.53;;;31.10;;
29196;SDS011;62796;42.654;23.316;2023-12-28T05:45:20;45.63;;;26.15;;
29196;SDS011;62796;42.654;23.316;2023-12-28T05:47:46;45.15;;;25.05;;
29196;SDS011;62796;42.654;23.316;2023-12-28T05:50:11;39.40;;;23.55;;
29196;SDS011;62796;42.654;23.316;2023-12-28T05:52:37;46.08;;;26.05;;
29196;SDS011;62796;42.654;23.316;2023-12-28T05:55:03;41.22;;;24.35;;
29196;SDS011;62796;42.654;23.316;2023-12-28T05:57:29;39.38;;;24.98;;
29196;SDS011;62796;42.654;23.316;2023-12-28T05:59:56;42.22;;;27.35;;
29196;SDS011;62796;42.654;23.316;2023-12-28T06:02:22;39.45;;;23.67;;
29196;SDS011;62796;42.654;23.316;2023-12-28T06:04:47;36.30;;;23.00;;
29196;SDS011;62796;42.654;23.316;2023-12-28T06:07:12;41.65;;;22.77;;
29196;SDS011;62796;42.654;23.316;2023-12-28T06:09:38;44.83;;;23.52;;
29196;SDS011;62796;42.654;23.316;2023-12-28T06:12:07;38.65;;;24.08;;
29196;SDS011;62796;42.654;23.316;2023-12-28T06:14:32;37.35;;;23.52;;
29196;SDS011;62796;42.654;23.316;2023-12-28T06:16:58;49.78;;;24.70;;
29196;SDS011;62796;42.654;23.316;2023-12-28T06:19:23;43.95;;;23.92;;
29196;SDS011;62796;42.654;23.316;2023-12-28T06:21:49;50.97;;;26.67;;
29196;SDS011;62796;42.654;23.316;2023-12-28T06:24:14;50.83;;;26.13;;
29196;SDS011;62796;42.654;23.316;2023-12-28T06:26:43;52.47;;;25.20;;
29196;SDS011;62796;42.654;23.316;2023-12-28T06:29:09;57.20;;;28.58;;
29196;SDS011;62796;42.654;23.316;2023-12-28T06:31:35;49.78;;;28.58;;
29196;SDS011;62796;42.654;23.316;2023-12-28T06:34:02;56.25;;;26.77;;
29196;SDS011;62796;42.654;23.316;2023-12-28T06:36:28;59.58;;;27.42;;
29196;SDS011;62796;42.654;23.316;2023-12-28T06:38:54;51.08;;;29.13;;
29196;SDS011;62796;42.654;23.316;2023-12-28T06:41:19;57.55;;;28.80;;
29196;SDS011;62796;42.654;23.316;2023-12-28T06:43:45;50.88;;;27.20;;
29196;SDS011;62796;42.654;23.316;2023-12-28T06:46:10;48.05;;;27.55;;
29196;SDS011;62796;42.654;23.316;2023-12-28T06:48:35;58.08;;;29.20;;
29196;SDS011;62796;42.654;23.316;2023-12-28T06:51:01;55.97;;;30.30;;
29196;SDS011;62796;42.654;23.316;2023-12-28T06:53:27;52.38;;;30.27;;
29196;SDS011;62796;42.654;23.316;2023-12-28T06:55:52;52.95;;;27.65;;
29196;SDS011;62796;42.654;23.316;2023-12-28T06:58:18;52.25;;;30.90;;
29196;SDS011;62796;42.654;23.316;2023-12-28T07:00:43;62.58;;;38.45;;
29196;SDS011;62796;42.654;23.316;2023-12-28T07:03:09;54.80;;;34.50;;
29196;SDS011;62796;42.654;23.316;2023-12-28T07:05:35;50.67;;;30.30;;
29196;SDS011;62796;42.654;23.316;2023-12-28T07:08:00;51.38;;;32.67;;
29196;SDS011;62796;42.654;23.316;2023-12-28T07:10:26;51.95;;;30.45;;
29196;SDS011;62796;42.654;23.316;2023-12-28T07:12:51;44.88;;;26.52;;
29196;SDS011;62796;42.654;23.316;2023-12-28T07:15:17;45.17;;;24.13;;
29196;SDS011;62796;42.654;23.316;2023-12-28T07:17:42;37.17;;;23.08;;
29196;SDS011;62796;42.654;23.316;2023-12-28T07:20:08;42.80;;;24.20;;
29196;SDS011;62796;42.654;23.316;2023-12-28T07:22:37;38.72;;;23.77;;
29196;SDS011;62796;42.654;23.316;2023-12-28T07:25:03;37.00;;;22.35;;
29196;SDS011;62796;42.654;23.316;2023-12-28T07:27:32;33.42;;;21.33;;
29196;SDS011;62796;42.654;23.316;2023-12-28T07:29:59;31.38;;;20.35;;
29196;SDS011;62796;42.654;23.316;2023-12-28T07:32:25;37.58;;;22.10;;
29196;SDS011;62796;42.654;23.316;2023-12-28T07:34:52;37.42;;;22.17;;
29196;SDS011;62796;42.654;23.316;2023-12-28T07:37:20;35.92;;;22.77;;
29196;SDS011;62796;42.654;23.316;2023-12-28T07:39:49;34.10;;;22.75;;
29196;SDS011;62796;42.654;23.316;2023-12-28T07:42:14;42.08;;;25.10;;
29196;SDS011;62796;42.654;23.316;2023-12-28T07:44:40;46.28;;;30.13;;
29196;SDS011;62796;42.654;23.316;2023-12-28T07:47:05;39.45;;;24.40;;
29196;SDS011;62796;42.654;23.316;2023-12-28T07:49:31;39.25;;;23.58;;
29196;SDS011;62796;42.654;23.316;2023-12-28T07:51:56;44.95;;;25.33;;
29196;SDS011;62796;42.654;23.316;2023-12-28T07:54:22;40.33;;;25.25;;
29196;SDS011;62796;42.654;23.316;2023-12-28T07:56:47;39.83;;;25.70;;
29196;SDS011;62796;42.654;23.316;2023-12-28T07:59:14;49.08;;;29.88;;
29196;SDS011;62796;42.654;23.316;2023-12-28T08:01:40;51.97;;;33.95;;
29196;SDS011;62796;42.654;23.316;2023-12-28T08:04:05;57.25;;;30.65;;
29196;SDS011;62796;42.654;23.316;2023-12-28T08:06:31;48.35;;;28.73;;
29196;SDS011;62796;42.654;23.316;2023-12-28T08:08:57;47.97;;;27.20;;
29196;SDS011;62796;42.654;23.316;2023-12-28T08:11:25;50.58;;;31.88;;
29196;SDS011;62796;42.654;23.316;2023-12-28T08:13:51;42.20;;;27.08;;
29196;SDS011;62796;42.654;23.316;2023-12-28T08:16:17;40.92;;;23.80;;
29196;SDS011;62796;42.654;23.316;2023-12-28T08:18:42;38.78;;;24.50;;
29196;SDS011;62796;42.654;23.316;2023-12-28T08:21:08;38.85;;;22.95;;
29196;SDS011;62796;42.654;23.316;2023-12-28T08:23:33;38.58;;;22.27;;
29196;SDS011;62796;42.654;23.316;2023-12-28T08:25:59;42.13;;;23.02;;
29196;SDS011;62796;42.654;23.316;2023-12-28T08:28:24;33.13;;;21.42;;
29196;SDS011;62796;42.654;23.316;2023-12-28T08:30:50;35.33;;;22.63;;
29196;SDS011;62796;42.654;23.316;2023-12-28T08:33:15;36.88;;;23.27;;
29196;SDS011;62796;42.654;23.316;2023-12-28T08:35:41;32.78;;;23.55;;
29196;SDS011;62796;42.654;23.316;2023-12-28T08:38:06;42.03;;;24.58;;
29196;SDS011;62796;42.654;23.316;2023-12-28T08:40:32;38.35;;;22.85;;
29196;SDS011;62796;42.654;23.316;2023-12-28T08:42:57;31.48;;;20.63;;
29196;SDS011;62796;42.654;23.316;2023-12-28T08:45:23;30.75;;;20.23;;
29196;SDS011;62796;42.654;23.316;2023-12-28T08:47:48;28.15;;;17.88;;
29196;SDS011;62796;42.654;23.316;2023-12-28T08:50:14;31.02;;;20.15;;
29196;SDS011;62796;42.654;23.316;2023-12-28T08:52:39;26.95;;;18.48;;
29196;SDS011;62796;42.654;23.316;2023-12-28T08:55:05;28.23;;;18.52;;
29196;SDS011;62796;42.654;23.316;2023-12-28T08:57:31;27.00;;;17.60;;
29196;SDS011;62796;42.654;23.316;2023-12-28T08:59:56;25.85;;;16.75;;
29196;SDS011;62796;42.654;23.316;2023-12-28T09:02:22;26.30;;;18.15;;
29196;SDS011;62796;42.654;23.316;2023-12-28T09:04:48;27.38;;;17.65;;
29196;SDS011;62796;42.654;23.316;2023-12-28T09:07:13;28.05;;;18.27;;
29196;SDS011;62796;42.654;23.316;2023-12-28T09:09:39;28.25;;;17.95;;
29196;SDS011;62796;42.654;23.316;2023-12-28T09:12:06;34.22;;;18.25;;
29196;SDS011;62796;42.654;23.316;2023-12-28T09:14:31;36.15;;;19.77;;
29196;SDS011;62796;42.654;23.316;2023-12-28T09:16:57;37.53;;;19.55;;
29196;SDS011;62796;42.654;23.316;2023-12-28T09:19:22;29.83;;;20.13;;
29196;SDS011;62796;42.654;23.316;2023-12-28T09:21:48;31.52;;;19.63;;
29196;SDS011;62796;42.654;23.316;2023-12-28T09:24:13;36.13;;;21.30;;
29196;SDS011;62796;42.654;23.316;2023-12-28T09:26:40;40.10;;;21.50;;
29196;SDS011;62796;42.654;23.316;2023-12-28T09:29:06;39.38;;;21.10;;
29196;SDS011;62796;42.654;23.316;2023-12-28T09:31:31;44.38;;;21.13;;
29196;SDS011;62796;42.654;23.316;2023-12-28T09:33:57;40.40;;;21.17;;
29196;SDS011;62796;42.654;23.316;2023-12-28T09:36:23;43.03;;;20.85;;
29196;SDS011;62796;42.654;23.316;2023-12-28T09:38:48;37.13;;;20.48;;
29196;SDS011;62796;42.654;23.316;2023-12-28T09:41:16;34.85;;;19.20;;
29196;SDS011;62796;42.654;23.316;2023-12-28T09:46:17;29.35;;;17.42;;
29196;SDS011;62796;42.654;23.316;2023-12-28T09:48:43;23.55;;;15.00;;
29196;SDS011;62796;42.654;23.316;2023-12-28T09:51:10;21.83;;;14.27;;
29196;SDS011;62796;42.654;23.316;2023-12-28T09:53:35;24.33;;;15.63;;
29196;SDS011;62796;42.654;23.316;2023-12-28T09:56:02;23.30;;;15.05;;
29196;SDS011;62796;42.654;23.316;2023-12-28T09:58:28;26.38;;;16.42;;
29196;SDS011;62796;42.654;23.316;2023-12-28T10:00:56;25.92;;;15.43;;
29196;SDS011;62796;42.654;23.316;2023-12-28T10:03:21;25.98;;;15.50;;
29196;SDS011;62796;42.654;23.316;2023-12-28T10:05:47;25.35;;;15.07;;
29196;SDS011;62796;42.654;23.316;2023-12-28T10:08:13;26.35;;;14.90;;
29196;SDS011;62796;42.654;23.316;2023-12-28T10:10:39;24.15;;;15.95;;
29196;SDS011;62796;42.654;23.316;2023-12-28T10:13:06;26.58;;;16.40;;
29196;SDS011;62796;42.654;23.316;2023-12-28T10:15:32;29.92;;;17.90;;
29196;SDS011;62796;42.654;23.316;2023-12-28T10:17:58;34.60;;;19.50;;
29196;SDS011;62796;42.654;23.316;2023-12-28T10:20:26;41.63;;;21.92;;
29196;SDS011;62796;42.654;23.316;2023-12-28T10:22:52;46.63;;;29.30;;
29196;SDS011;62796;42.654;23.316;2023-12-28T10:25:18;50.40;;;28.20;;
29196;SDS011;62796;42.654;23.316;2023-12-28T10:27:44;49.90;;;30.58;;
29196;SDS011;62796;42.654;23.316;2023-12-28T10:30:09;42.63;;;27.90;;
29196;SDS011;62796;42.654;23.316;2023-12-28T10:32:44;46.30;;;28.35;;
29196;SDS011;62796;42.654;23.316;2023-12-28T10:35:10;39.20;;;26.80;;
29196;SDS011;62796;42.654;23.316;2023-12-28T10:37:36;43.08;;;27.63;;
29196;SDS011;62796;42.654;23.316;2023-12-28T10:40:06;43.03;;;25.20;;
29196;SDS011;62796;42.654;23.316;2023-12-28T10:42:33;45.42;;;26.60;;
29196;SDS011;62796;42.654;23.316;2023-12-28T10:47:31;48.08;;;30.27;;
29196;SDS011;62796;42.654;23.316;2023-12-28T10:50:00;47.63;;;31.73;;
29196;SDS011;62796;42.654;23.316;2023-12-28T10:52:30;53.65;;;32.30;;
29196;SDS011;62796;42.654;23.316;2023-12-28T10:54:57;56.50;;;33.13;;
29196;SDS011;62796;42.654;23.316;2023-12-28T10:58:23;49.75;;;30.45;;
29196;SDS011;62796;42.654;23.316;2023-12-28T11:00:47;49.95;;;29.52;;
29196;SDS011;62796;42.654;23.316;2023-12-28T11:03:18;53.53;;;32.13;;
29196;SDS011;62796;42.654;23.316;2023-12-28T11:05:48;53.05;;;33.20;;
29196;SDS011;62796;42.654;23.316;2023-12-28T11:08:14;56.45;;;32.38;;
29196;SDS011;62796;42.654;23.316;2023-12-28T11:10:41;50.90;;;30.88;;
29196;SDS011;62796;42.654;23.316;2023-12-28T11:13:07;52.25;;;31.00;;
29196;SDS011;62796;42.654;23.316;2023-12-28T11:15:34;45.92;;;29.38;;
29196;SDS011;62796;42.654;23.316;2023-12-28T11:18:01;44.67;;;30.00;;
29196;SDS011;62796;42.654;23.316;2023-12-28T11:20:27;51.13;;;32.38;;
29196;SDS011;62796;42.654;23.316;2023-12-28T11:22:54;49.05;;;31.25;;
29196;SDS011;62796;42.654;23.316;2023-12-28T11:25:20;49.22;;;31.83;;
29196;SDS011;62796;42.654;23.316;2023-12-28T11:27:46;51.83;;;30.65;;
29196;SDS011;62796;42.654;23.316;2023-12-28T11:30:12;47.78;;;29.88;;
29196;SDS011;62796;42.654;23.316;2023-12-28T11:32:40;47.75;;;28.40;;
29196;SDS011;62796;42.654;23.316;2023-12-28T11:35:08;47.17;;;27.67;;
29196;SDS011;62796;42.654;23.316;2023-12-28T11:37:36;45.08;;;26.48;;
29196;SDS011;62796;42.654;23.316;2023-12-28T11:40:12;43.60;;;24.88;;
29196;SDS011;62796;42.654;23.316;2023-12-28T11:42:50;41.92;;;22.73;;
29196;SDS011;62796;42.654;23.316;2023-12-28T11:45:18;29.40;;;18.98;;
29196;SDS011;62796;42.654;23.316;2023-12-28T11:47:44;31.55;;;20.00;;
29196;SDS011;62796;42.654;23.316;2023-12-28T11:50:10;34.88;;;21.08;;
29196;SDS011;62796;42.654;23.316;2023-12-28T11:52:36;34.45;;;19.38;;
29196;SDS011;62796;42.654;23.316;2023-12-28T11:55:01;32.25;;;19.65;;
29196;SDS011;62796;42.654;23.316;2023-12-28T11:57:27;35.38;;;21.45;;
29196;SDS011;62796;42.654;23.316;2023-12-28T11:59:56;34.13;;;22.75;;
29196;SDS011;62796;42.654;23.316;2023-12-28T12:02:23;39.50;;;21.73;;
29196;SDS011;62796;42.654;23.316;2023-12-28T12:04:51;35.42;;;23.30;;
29196;SDS011;62796;42.654;23.316;2023-12-28T12:07:16;42.10;;;24.00;;
29196;SDS011;62796;42.654;23.316;2023-12-28T12:09:42;35.42;;;23.40;;
29196;SDS011;62796;42.654;23.316;2023-12-28T12:12:08;40.75;;;23.45;;
29196;SDS011;62796;42.654;23.316;2023-12-28T12:14:34;37.53;;;22.75;;
29196;SDS011;62796;42.654;23.316;2023-12-28T12:17:00;35.97;;;23.70;;
29196;SDS011;62796;42.654;23.316;2023-12-28T12:19:26;38.15;;;22.42;;
29196;SDS011;62796;42.654;23.316;2023-12-28T12:21:52;35.15;;;23.02;;
29196;SDS011;62796;42.654;23.316;2023-12-28T12:24:18;39.05;;;22.13;;
29196;SDS011;62796;42.654;23.316;2023-12-28T12:26:45;38.28;;;21.40;;
29196;SDS011;62796;42.654;23.316;2023-12-28T12:29:11;33.20;;;21.27;;
29196;SDS011;62796;42.654;23.316;2023-12-28T12:31:37;36.45;;;21.60;;
29196;SDS011;62796;42.654;23.316;2023-12-28T12:34:05;35.88;;;20.52;;
29196;SDS011;62796;42.654;23.316;2023-12-28T12:36:31;27.77;;;19.45;;
29196;SDS011;62796;42.654;23.316;2023-12-28T12:38:56;36.20;;;20.02;;
29196;SDS011;62796;42.654;23.316;2023-12-28T12:41:22;34.15;;;20.85;;
29196;SDS011;62796;42.654;23.316;2023-12-28T12:43:47;27.80;;;20.95;;
29196;SDS011;62796;42.654;23.316;2023-12-28T12:46:13;30.83;;;19.73;;
29196;SDS011;62796;42.654;23.316;2023-12-28T12:48:39;28.90;;;19.55;;
29196;SDS011;62796;42.654;23.316;2023-12-28T12:51:05;35.28;;;21.77;;
29196;SDS011;62796;42.654;23.316;2023-12-28T12:53:34;37.00;;;23.77;;
29196;SDS011;62796;42.654;23.316;2023-12-28T12:56:00;35.47;;;25.48;;
29196;SDS011;62796;42.654;23.316;2023-12-28T12:58:27;35.03;;;24.63;;
29196;SDS011;62796;42.654;23.316;2023-12-28T13:00:53;32.50;;;24.48;;
29196;SDS011;62796;42.654;23.316;2023-12-28T13:03:19;37.58;;;24.67;;
29196;SDS011;62796;42.654;23.316;2023-12-28T13:05:45;34.17;;;23.13;;
29196;SDS011;62796;42.654;23.316;2023-12-28T13:08:10;33.55;;;22.38;;
29196;SDS011;62796;42.654;23.316;2023-12-28T13:10:36;32.75;;;22.63;;
29196;SDS011;62796;42.654;23.316;2023-12-28T13:13:01;32.25;;;22.40;;
29196;SDS011;62796;42.654;23.316;2023-12-28T13:15:27;32.10;;;22.08;;
29196;SDS011;62796;42.654;23.316;2023-12-28T13:17:53;31.02;;;22.20;;
29196;SDS011;62796;42.654;23.316;2023-12-28T13:20:18;33.00;;;21.00;;
29196;SDS011;62796;42.654;23.316;2023-12-28T13:22:44;37.25;;;21.67;;
29196;SDS011;62796;42.654;23.316;2023-12-28T13:25:09;32.15;;;21.80;;
29196;SDS011;62796;42.654;23.316;2023-12-28T13:27:35;31.30;;;22.17;;
29196;SDS011;62796;42.654;23.316;2023-12-28T13:30:00;30.75;;;21.95;;
29196;SDS011;62796;42.654;23.316;2023-12-28T13:32:25;32.80;;;21.80;;
29196;SDS011;62796;42.654;23.316;2023-12-28T13:34:51;35.17;;;22.65;;
29196;SDS011;62796;42.654;23.316;2023-12-28T13:37:17;32.22;;;21.40;;
29196;SDS011;62796;42.654;23.316;2023-12-28T13:39:43;38.65;;;22.30;;
29196;SDS011;62796;42.654;23.316;2023-12-28T13:42:09;30.65;;;21.77;;
29196;SDS011;62796;42.654;23.316;2023-12-28T13:44:34;32.78;;;22.52;;
29196;SDS011;62796;42.654;23.316;2023-12-28T13:47:03;31.80;;;22.55;;
29196;SDS011;62796;42.654;23.316;2023-12-28T13:49:30;51.45;;;24.48;;
29196;SDS011;62796;42.654;23.316;2023-12-28T13:51:56;46.40;;;24.23;;
29196;SDS011;62796;42.654;23.316;2023-12-28T13:54:21;45.78;;;26.77;;
29196;SDS011;62796;42.654;23.316;2023-12-28T13:56:47;49.75;;;30.13;;
29196;SDS011;62796;42.654;23.316;2023-12-28T13:59:13;45.70;;;28.05;;
29196;SDS011;62796;42.654;23.316;2023-12-28T14:01:38;48.72;;;27.65;;
29196;SDS011;62796;42.654;23.316;2023-12-28T14:04:04;54.10;;;26.20;;
29196;SDS011;62796;42.654;23.316;2023-12-28T14:06:30;46.45;;;27.50;;
29196;SDS011;62796;42.654;23.316;2023-12-28T14:08:55;56.97;;;30.42;;
29196;SDS011;62796;42.654;23.316;2023-12-28T14:11:22;80.50;;;32.83;;
29196;SDS011;62796;42.654;23.316;2023-12-28T14:13:48;85.38;;;35.13;;
29196;SDS011;62796;42.654;23.316;2023-12-28T14:16:14;67.97;;;33.28;;